新東京国際空港の過去48時間の天気

新東京国際空港 (Tokyo/New Tokyo Intl)

現在時刻: 12/11 17:02 JST (12/11 08:02 UTC) 以下の時間は現地時間です。

過去48時間のMETAR気象情報
時間 風向 風速(m/s) 視程 気温(℃) 湿度(%) 気圧(hPa) 天気現象
11 16:30 北北東 3 10km以上 8 76 1027 弱い雨
11 16:00 3 10km以上 9 66 1027 弱い雨
11 15:30 北東 3 10km以上 9 62 1027
11 15:00 北北東 3 10km以上 9 57 1026
11 14:30 北北東 3 10km以上 9 62 1026
11 14:00 北東 4 10km以上 9 62 1027
11 13:30 北北東 3 10km以上 9 62 1027
11 13:00 3 10km以上 9 62 1028 弱い雨
11 12:30 4 10km以上 8 61 1028 弱い雨
11 12:00 5 10km以上 8 61 1028
11 11:30 5 10km以上 8 57 1029
11 11:00 北北西 4 10km以上 7 61 1030
11 10:30 北北西 4 10km以上 7 66 1031
11 10:00 北西 4 10km以上 6 65 1031
11 09:30 北北西 4 10km以上 5 70 1031
11 09:00 北北西 4 10km以上 3 81 1031
11 08:30 北北西 5 10km以上 2 81 1031
11 08:00 北北西 4 10km以上 1 86 1031
11 07:30 北北西 3 10km以上 1 86 1030
11 07:00 北北西 4 10km以上 0 86 1030
11 06:30 北西 3 10km以上 1 86 1030
11 06:00 北北西 4 10km以上 1 86 1029
11 05:30 北北西 3 10km以上 1 86 1029
11 05:00 4 10km以上 2 81 1029
11 04:30 4 10km以上 1 80 1029
11 04:00 4 10km以上 2 75 1029
11 03:30 4 10km以上 2 75 1029
11 03:00 4 10km以上 2 75 1029
11 02:30 3 10km以上 2 75 1030
11 02:00 北北西 3 10km以上 1 80 1030
11 01:30 北北西 3 10km以上 2 75 1030
11 01:00 北北西 4 10km以上 2 75 1029
11 00:30 北北西 4 10km以上 2 69 1029
11 00:00 3 10km以上 2 69 1029
10 23:30 4 10km以上 2 69 1029
10 23:00 5 10km以上 4 60 1029
10 22:30 5 10km以上 4 60 1029
10 22:00 5 10km以上 5 61 1029
10 21:30 北北西 3 10km以上 3 70 1029
10 21:00 北西 3 10km以上 3 65 1028
10 20:30 北北西 3 10km以上 3 70 1028
10 20:00 北北西 3 10km以上 4 60 1028
10 19:30 4 10km以上 6 52 1028
10 19:00 4 10km以上 6 49 1028
10 18:30 4 10km以上 6 49 1028
10 18:00 4 10km以上 6 45 1028
10 17:30 北西 3 10km以上 5 52 1028
10 17:00 北北西 3 10km以上 5 56 1028
10 16:30 4 10km以上 6 49 1027
10 16:00 北北東 3 10km以上 7 42 1027
10 15:30 北北東 4 10km以上 7 45 1027
10 15:00 北北東 4 10km以上 7 42 1027
10 14:30 北北東 4 10km以上 8 39 1027
10 14:00 4 10km以上 8 42 1026
10 13:30 4 10km以上 7 42 1027
10 13:00 4 10km以上 7 42 1027
10 12:30 4 10km以上 8 42 1027
10 12:00 5 10km以上 7 49 1027
10 11:30 北北東 3 10km以上 6 52 1028
10 11:00 4 10km以上 6 49 1028
10 10:30 北北東 4 10km以上 6 52 1028
10 10:00 北北東 4 10km以上 5 56 1029
10 09:30 4 10km以上 5 56 1029
10 09:00 3 10km以上 4 60 1029
10 08:30 北北西 3 10km以上 3 70 1029
10 08:00 北北西 2 10km以上 3 70 1028
10 07:30 北西 2 10km以上 2 75 1028
10 07:00 北西 2 10km以上 2 75 1027
10 06:30 北北西 2 10km以上 2 69 1027
10 06:00 2 10km以上 2 75 1027
10 05:30 北西 2 10km以上 1 80 1027
10 05:00 北西 3 10km以上 1 75 1027
10 04:30 不定 1 10km以上 1 80 1026
10 04:00 北西 1 10km以上 1 75 1026
10 03:30 北北西 2 10km以上 1 75 1026
10 03:00 2 10km以上 2 69 1026
10 02:30 北北西 2 10km以上 2 69 1026
10 02:00 2 10km以上 2 75 1026
10 01:30 1 10km以上 1 75 1026
10 01:00 北北西 2 10km以上 1 80 1026
10 00:30 北西 2 10km以上 2 69 1026
10 00:00 北北西 3 10km以上 1 75 1026
9 23:30 北北西 2 10km以上 1 75 1026
9 23:00 北北西 2 10km以上 2 69 1026
9 22:30 北北西 3 10km以上 3 65 1026
9 22:00 4 10km以上 3 60 1025
9 21:30 4 10km以上 4 60 1025
9 21:00 北北東 5 10km以上 4 60 1024
9 20:30 4 10km以上 4 56 1025
9 20:00 北北東 4 10km以上 5 56 1025
9 19:30 北北東 4 10km以上 6 52 1025
9 19:00 西北西 2 10km以上 2 81 1025
9 18:30 不定 1 10km以上 2 81 1025
9 18:00 不定 1 10km以上 3 75 1024
9 17:30 南西 2 10km以上 3 75 1024
RJAA 110730Z 02006KT 9999 -RA BKN035 08/04 Q1027 NOSIG RMK 7SC035 A3034
RJAA 110700Z 01005KT 340V070 9999 -RA BKN035 09/03 Q1027 NOSIG RMK 7SC035 A3033
RJAA 110630Z 04005KT 360V100 9999 FEW030 BKN040 09/02 Q1027 NOSIG RMK 1CU030 7SC040 A3033
RJAA 110600Z 02006KT 9999 FEW030 BKN040 09/01 Q1026 NOSIG RMK 1CU030 7SC040 A3032
RJAA 110530Z 03006KT 9999 FEW030 BKN045 09/02 Q1026 NOSIG RMK 1CU030 7SC045 A3032
RJAA 110500Z 04007KT 010V070 9999 FEW030 BKN045 09/02 Q1027 NOSIG RMK 1CU030 7SC045 A3033
RJAA 110430Z 03006KT 330V060 9999 FEW030 BKN050 09/02 Q1027 NOSIG RMK 1CU030 7SC050 A3033
RJAA 110400Z 36006KT 330V030 9999 -RA FEW030 BKN050 09/02 Q1028 NOSIG RMK 1CU030 7SC050 A3036
RJAA 110330Z 36007KT 9999 -RA FEW030 BKN050 08/01 Q1028 NOSIG RMK 1CU030 7SC050 A3037
RJAA 110300Z 01010KT 9999 FEW030 BKN050 08/01 Q1028 NOSIG RMK 1CU030 7SC050 A3038
RJAA 110230Z 01010KT 9999 FEW030 BKN060 08/00 Q1029 NOSIG RMK 1CU030 7SC060 A3040
RJAA 110200Z 34008KT 9999 FEW030 BKN060 07/00 Q1030 NOSIG RMK 1CU030 7SC060 A3043
RJAA 110130Z 33007KT 9999 FEW030 BKN060 07/01 Q1031 NOSIG RMK 1CU030 7SC060 A3046
RJAA 110100Z 32008KT 9999 FEW030 BKN070 06/00 Q1031 NOSIG RMK 1CU030 7AC070 A3047
RJAA 110030Z 34008KT 9999 FEW030 BKN070 BKN/// 05/00 Q1031 NOSIG
RJAA 110000Z 33008KT 9999 FEW030 BKN070 BKN/// 03/M00 Q1031 NOSIG RMK 1CU030 6AC070 A3046
RJAA 102330Z 33009KT 9999 FEW030 BKN060 02/M01 Q1031 NOSIG RMK 1CU030 5SC060 A3045
RJAA 102300Z 33007KT 9999 FEW030 SCT070 01/M01 Q1031 NOSIG RMK 1CU030 3AC070 A3045
RJAA 102230Z 34006KT 9999 FEW030 01/M01 Q1030 NOSIG RMK 1CU030 A3044
RJAA 102200Z 33007KT 9999 FEW030 M00/M02 Q1030 NOSIG RMK 1CU030 A3044
RJAA 102130Z 32006KT 9999 FEW030 01/M01 Q1030 NOSIG RMK 1CU030 A3042
RJAA 102100Z 33007KT 9999 FEW030 01/M01 Q1029 NOSIG RMK 1CU030 A3041
RJAA 102030Z 34006KT 9999 FEW030 01/M01 Q1029 NOSIG RMK 1CU030 A3040
RJAA 102000Z 36008KT 9999 FEW030 02/M01 Q1029 NOSIG RMK 1CU030 A3040
RJAA 101930Z 35007KT 9999 FEW030 01/M02 Q1029 NOSIG RMK 1CU030 A3040
RJAA 101900Z 36008KT 9999 FEW030 02/M02 Q1029 NOSIG RMK 1CU030 A3041
RJAA 101830Z 01008KT 9999 FEW030 02/M02 Q1029 NOSIG RMK 1CU030 A3041
RJAA 101800Z 01008KT 9999 FEW030 02/M02 Q1029 NOSIG RMK 1CU030 A3041
RJAA 101730Z 36006KT 9999 FEW030 02/M02 Q1030 NOSIG RMK 1CU030 A3042
RJAA 101700Z 34006KT 9999 FEW030 01/M02 Q1030 NOSIG RMK 1CU030 A3042
RJAA 101630Z 33006KT 9999 FEW030 02/M02 Q1030 NOSIG RMK 1CU030 A3042
RJAA 101600Z 33007KT 9999 FEW030 02/M02 Q1029 NOSIG RMK 1CU030 A3041
RJAA 101530Z 33007KT 9999 FEW030 02/M03 Q1029 NOSIG RMK 1CU030 A3040
RJAA 101500Z 35006KT 9999 FEW030 02/M03 Q1029 NOSIG RMK 1CU030 A3040
RJAA 101430Z 35008KT 9999 FEW030 02/M03 Q1029 NOSIG RMK 1CU030 A3040
RJAA 101400Z 36010KT 9999 FEW030 04/M03 Q1029 NOSIG RMK 1CU030 A3039
RJAA 101330Z 01010KT 9999 FEW030 SCT080 04/M03 Q1029 NOSIG RMK 1CU030 3AC080 A3039
RJAA 101300Z 36010KT 9999 FEW030 SCT080 05/M02 Q1029 NOSIG RMK 1CU030 4AC080 A3039
RJAA 101230Z 34006KT 9999 FEW030 03/M02 Q1029 NOSIG RMK 1CU030 A3039
RJAA 101200Z 32005KT 9999 FEW030 03/M03 Q1028 NOSIG RMK 1CU030 A3038
RJAA 101130Z 33005KT 9999 FEW030 03/M02 Q1028 NOSIG RMK 1CU030 A3038
RJAA 101100Z 33006KT 9999 FEW030 04/M03 Q1028 NOSIG RMK 1CU030 A3037
RJAA 101030Z 36008KT 9999 FEW030 06/M03 Q1028 NOSIG RMK 1CU030 A3037
RJAA 101000Z 36008KT 9999 FEW030 06/M04 Q1028 NOSIG RMK 1CU030 A3037
RJAA 100930Z 01008KT 9999 FEW030 06/M04 Q1028 NOSIG RMK 1CU030 A3037
RJAA 100900Z 36008KT 9999 FEW030 SCT/// 06/M05 Q1028 NOSIG
RJAA 100830Z 32005KT 9999 FEW030 BKN/// 05/M04 Q1028 NOSIG RMK 1CU030 A3036
RJAA 100800Z 33006KT 9999 FEW030 BKN/// 05/M03 Q1028 NOSIG RMK 1CU030 A3036
RJAA 100730Z 01007KT 9999 FEW030 BKN/// 06/M04 Q1027 NOSIG RMK 1CU030 A3035
RJAA 100700Z 02006KT 9999 FEW030 BKN/// 07/M05 Q1027 NOSIG
RJAA 100630Z 02007KT 350V060 9999 FEW030 BKN/// 07/M04 Q1027 NOSIG
RJAA 100600Z 03008KT 360V060 9999 FEW030 SCT/// 07/M05 Q1027 NOSIG
RJAA 100530Z 02007KT 350V070 9999 FEW030 BKN/// 08/M05 Q1027 NOSIG
RJAA 100500Z 36007KT 340V040 9999 FEW030 BKN/// 08/M04 Q1026 NOSIG
RJAA 100430Z 35007KT 9999 FEW030 BKN/// 07/M05 Q1027 NOSIG RMK 1CU030 A3033
RJAA 100400Z 01007KT 340V040 9999 FEW020 BKN/// 07/M05 Q1027 NOSIG
RJAA 100330Z 01008KT 9999 FEW020 BKN/// 08/M04 Q1027 NOSIG
RJAA 100300Z 35009KT 9999 FEW020 BKN/// 07/M03 Q1027 NOSIG
RJAA 100230Z 02006KT 340V070 9999 FEW020 SCT060 BKN/// 06/M03 Q1028 NOSIG
RJAA 100200Z 01008KT 9999 FEW020 BKN/// 06/M04 Q1028 NOSIG RMK 1CU020 A3038
RJAA 100130Z 02008KT 9999 FEW020 SCT060 BKN/// 06/M03 Q1028 NOSIG
RJAA 100100Z 02008KT 360V060 9999 FEW020 BKN060 BKN/// 05/M03 Q1029 NOSIG
RJAA 100030Z 01008KT 9999 FEW020 BKN060 05/M03 Q1029 NOSIG RMK 1CU020 7SC060 A3040
RJAA 100000Z 01006KT 9999 FEW020 BKN060 04/M03 Q1029 NOSIG RMK 1CU020 7SC060 A3039
RJAA 092330Z 33005KT 9999 FEW020 BKN060 03/M02 Q1029 NOSIG RMK 1CU020 7SC060 A3039
RJAA 092300Z 33004KT 9999 FEW020 BKN060 03/M02 Q1028 NOSIG RMK 1CU020 7SC060 A3038
RJAA 092230Z 31003KT 9999 FEW020 BKN050 02/M02 Q1028 NOSIG RMK 1CU020 7SC050 A3037
RJAA 092200Z 32004KT 9999 FEW020 SCT050 BKN070 02/M02 Q1027 NOSIG RMK 1CU020 4SC050 6AC070 A3035
RJAA 092130Z 33003KT 9999 FEW020 BKN050 BKN070 02/M03 Q1027 NOSIG RMK 1CU020 5SC050 7AC070 A3035
RJAA 092100Z 36003KT 260V050 CAVOK 02/M02 Q1027 NOSIG RMK 6SC050 A3035
RJAA 092030Z 32004KT 280V360 CAVOK 01/M02 Q1027 NOSIG RMK 6SC060 A3033
RJAA 092000Z 32005KT CAVOK 01/M03 Q1027 NOSIG RMK 6SC060 A3033
RJAA 091930Z VRB02KT CAVOK 01/M02 Q1026 NOSIG RMK A3032
RJAA 091900Z 31002KT CAVOK 01/M03 Q1026 NOSIG RMK A3031
RJAA 091830Z 33003KT 290V360 CAVOK 01/M03 Q1026 NOSIG RMK A3031
RJAA 091800Z 35004KT 320V030 CAVOK 02/M03 Q1026 NOSIG RMK 5SC050 A3031
RJAA 091730Z 34004KT CAVOK 02/M03 Q1026 NOSIG RMK 6SC050 A3031
RJAA 091700Z 35004KT CAVOK 02/M02 Q1026 NOSIG RMK 5SC050 A3030
RJAA 091630Z 35002KT CAVOK 01/M03 Q1026 NOSIG RMK 7SC050 A3030
RJAA 091600Z 33004KT CAVOK 01/M02 Q1026 NOSIG RMK 7SC050 A3031
RJAA 091530Z 32004KT CAVOK 02/M03 Q1026 NOSIG RMK 7SC050 A3031
RJAA 091500Z 33006KT CAVOK 01/M03 Q1026 NOSIG RMK A3031
RJAA 091430Z 34003KT CAVOK 01/M03 Q1026 NOSIG RMK A3031
RJAA 091400Z 33003KT CAVOK 02/M03 Q1026 NOSIG RMK A3031
RJAA 091330Z 33005KT 300V360 CAVOK 03/M03 Q1026 NOSIG RMK A3030
RJAA 091300Z 35008KT CAVOK 03/M04 Q1025 NOSIG RMK A3029
RJAA 091230Z 01008KT CAVOK 04/M03 Q1025 NOSIG RMK A3028
RJAA 091200Z 02009KT CAVOK 04/M03 Q1024 NOSIG RMK A3026
RJAA 091130Z 01008KT CAVOK 04/M04 Q1025 NOSIG RMK A3027
RJAA 091100Z 03008KT 340V060 CAVOK 05/M03 Q1025 NOSIG RMK A3028
RJAA 091030Z 02007KT CAVOK 06/M03 Q1025 NOSIG RMK A3028
RJAA 091000Z 30003KT 280V010 CAVOK 02/M01 Q1025 NOSIG RMK A3028
RJAA 090930Z VRB01KT CAVOK 02/M01 Q1025 BECMG 03006KT
RJAA 090900Z VRB02KT CAVOK 03/M01 Q1024 BECMG 03006KT
RJAA 090830Z 22003KT 9999 FEW030 03/M01 Q1024 BECMG 03006KT